VKG302 ESGG-LDSP
Flight info
| Callsign | VKG302 |
|---|---|
| Flight time | N/A |
| Altitude | 39000 |
| Route | TOPLA DCT INRER DCT SALLO DCT KOGIM DCT LUROS DCT KOBUS M725 HDO DCT PISAM DCT PETOV DCT NUPSO |
| Aircraft | A339/H-SADE1E2E3GHIJ3J5M1P2RWXY/LB2D1 |
Departure
| Time | N/A |
|---|---|
| Airport | Göteborg Landvetter Airport (ESGG) |
Arrival
| Time | 2026-04-29 23:26 |
|---|---|
| Airport | Split Saint Jerome Airport (LDSP) |
| Time | Latitude | Longitude | Altitude | Speed | Heading |
|---|---|---|---|---|---|
| 2026-04-29 21:56 | 53.95900 | 13.64186 | 39495 ft | 499 kts | 168° |
| 2026-04-29 21:56 | 53.92468 | 13.65116 | 39494 ft | 499 kts | 168° |
| 2026-04-29 21:57 | 53.85597 | 13.66974 | 39490 ft | 499 kts | 168° |
| 2026-04-29 21:57 | 53.79125 | 13.68719 | 39492 ft | 499 kts | 168° |
| 2026-04-29 21:58 | 53.72291 | 13.70555 | 39493 ft | 499 kts | 168° |
| 2026-04-29 21:58 | 53.65429 | 13.72393 | 39497 ft | 499 kts | 168° |
| 2026-04-29 21:59 | 53.58560 | 13.74227 | 39499 ft | 499 kts | 168° |
| 2026-04-29 21:59 | 53.51689 | 13.76055 | 39497 ft | 499 kts | 168° |
| 2026-04-29 22:00 | 53.44863 | 13.77865 | 39499 ft | 500 kts | 168° |
| 2026-04-29 22:00 | 53.37977 | 13.79684 | 39494 ft | 500 kts | 168° |
| 2026-04-29 22:01 | 53.31133 | 13.81489 | 39495 ft | 500 kts | 168° |
| 2026-04-29 22:01 | 53.24248 | 13.83298 | 39502 ft | 500 kts | 168° |
| 2026-04-29 22:02 | 53.17358 | 13.85100 | 39506 ft | 501 kts | 168° |
| 2026-04-29 22:02 | 53.10472 | 13.86896 | 39501 ft | 501 kts | 168° |
| 2026-04-29 22:03 | 53.03578 | 13.88688 | 39504 ft | 501 kts | 168° |
| 2026-04-29 22:03 | 52.96681 | 13.90476 | 39499 ft | 501 kts | 168° |
| 2026-04-29 22:04 | 52.89821 | 13.92248 | 39500 ft | 501 kts | 168° |
| 2026-04-29 22:04 | 52.82917 | 13.94026 | 39499 ft | 501 kts | 168° |
| 2026-04-29 22:05 | 52.76009 | 13.95800 | 39485 ft | 502 kts | 168° |
| 2026-04-29 22:06 | 52.65670 | 13.98443 | 39488 ft | 502 kts | 168° |
| 2026-04-29 22:06 | 52.58799 | 14.00193 | 39495 ft | 502 kts | 168° |
| 2026-04-29 22:07 | 52.51886 | 14.01948 | 39494 ft | 501 kts | 168° |
| 2026-04-29 22:07 | 52.44988 | 14.03694 | 39501 ft | 501 kts | 168° |
| 2026-04-29 22:08 | 52.38141 | 14.05421 | 39494 ft | 500 kts | 168° |
| 2026-04-29 22:08 | 52.31266 | 14.07150 | 39486 ft | 500 kts | 168° |
| 2026-04-29 22:09 | 52.24392 | 14.08872 | 39486 ft | 499 kts | 168° |
| 2026-04-29 22:09 | 52.17523 | 14.10590 | 39487 ft | 499 kts | 169° |
| 2026-04-29 22:10 | 52.10668 | 14.12297 | 39483 ft | 498 kts | 169° |
| 2026-04-29 22:10 | 52.03817 | 14.13999 | 39483 ft | 497 kts | 169° |
| 2026-04-29 22:11 | 51.97014 | 14.15683 | 39483 ft | 497 kts | 169° |
| 2026-04-29 22:11 | 51.90189 | 14.17370 | 39484 ft | 496 kts | 169° |
| 2026-04-29 22:12 | 51.83350 | 14.18859 | 39482 ft | 496 kts | 171° |
| 2026-04-29 22:12 | 51.76499 | 14.20192 | 39482 ft | 495 kts | 171° |
| 2026-04-29 22:13 | 51.69664 | 14.21556 | 39481 ft | 494 kts | 171° |
| 2026-04-29 22:13 | 51.62893 | 14.22924 | 39477 ft | 493 kts | 171° |
| 2026-04-29 22:14 | 51.56078 | 14.24298 | 39481 ft | 492 kts | 171° |
| 2026-04-29 22:14 | 51.49283 | 14.25664 | 39478 ft | 492 kts | 171° |
| 2026-04-29 22:15 | 51.42485 | 14.27030 | 39477 ft | 491 kts | 171° |
| 2026-04-29 22:15 | 51.35706 | 14.28389 | 39468 ft | 491 kts | 172° |
| 2026-04-29 22:16 | 51.28972 | 14.29733 | 39464 ft | 491 kts | 172° |
| 2026-04-29 22:16 | 51.22194 | 14.31084 | 39466 ft | 491 kts | 172° |
| 2026-04-29 22:17 | 51.15424 | 14.32428 | 39469 ft | 490 kts | 172° |
| 2026-04-29 22:17 | 51.08630 | 14.33773 | 39471 ft | 491 kts | 172° |
| 2026-04-29 22:18 | 51.01844 | 14.35110 | 39471 ft | 491 kts | 172° |
| 2026-04-29 22:18 | 50.95114 | 14.36440 | 39473 ft | 491 kts | 172° |
| 2026-04-29 22:19 | 50.88509 | 14.39046 | 39468 ft | 489 kts | 160° |
| 2026-04-29 22:19 | 50.82044 | 14.42489 | 39459 ft | 490 kts | 160° |
| 2026-04-29 22:20 | 50.75554 | 14.45885 | 39457 ft | 491 kts | 161° |
| 2026-04-29 22:20 | 50.69091 | 14.49237 | 39457 ft | 492 kts | 161° |
| 2026-04-29 22:21 | 50.62577 | 14.52603 | 39451 ft | 493 kts | 161° |
| 2026-04-29 22:21 | 50.56049 | 14.55967 | 39460 ft | 494 kts | 161° |
| 2026-04-29 22:22 | 50.49502 | 14.59330 | 39455 ft | 495 kts | 161° |
| 2026-04-29 22:22 | 50.42950 | 14.62688 | 39457 ft | 496 kts | 161° |
| 2026-04-29 22:23 | 50.36428 | 14.66020 | 39452 ft | 497 kts | 161° |
| 2026-04-29 22:23 | 50.29836 | 14.69377 | 39455 ft | 497 kts | 161° |
| 2026-04-29 22:24 | 50.23243 | 14.72725 | 39452 ft | 498 kts | 161° |
| 2026-04-29 22:24 | 50.16639 | 14.76070 | 39454 ft | 499 kts | 162° |
| 2026-04-29 22:25 | 50.10029 | 14.79407 | 39455 ft | 500 kts | 162° |
| 2026-04-29 22:25 | 50.03406 | 14.82742 | 39453 ft | 500 kts | 162° |
| 2026-04-29 22:26 | 49.96823 | 14.86045 | 39448 ft | 501 kts | 162° |
| 2026-04-29 22:26 | 49.90182 | 14.89368 | 39448 ft | 501 kts | 162° |
| 2026-04-29 22:27 | 49.83547 | 14.92678 | 39451 ft | 501 kts | 162° |
| 2026-04-29 22:27 | 49.76908 | 14.95981 | 39450 ft | 501 kts | 162° |
| 2026-04-29 22:28 | 49.70270 | 14.99275 | 39448 ft | 500 kts | 162° |
| 2026-04-29 22:28 | 49.63634 | 15.02559 | 39452 ft | 500 kts | 162° |
| 2026-04-29 22:29 | 49.58140 | 15.05270 | 39449 ft | 499 kts | 162° |
| 2026-04-29 22:29 | 49.50412 | 15.09074 | 39447 ft | 498 kts | 162° |
| 2026-04-29 22:30 | 49.43860 | 15.12289 | 39451 ft | 496 kts | 162° |
| 2026-04-29 22:30 | 49.37295 | 15.15502 | 39451 ft | 495 kts | 163° |
| 2026-04-29 22:31 | 49.30743 | 15.18699 | 39447 ft | 493 kts | 163° |
| 2026-04-29 22:31 | 49.24216 | 15.21874 | 39445 ft | 491 kts | 163° |
| 2026-04-29 22:32 | 49.17702 | 15.25034 | 39439 ft | 490 kts | 163° |
| 2026-04-29 22:32 | 49.11208 | 15.28177 | 39434 ft | 488 kts | 164° |
| 2026-04-29 22:33 | 49.04779 | 15.31279 | 39426 ft | 487 kts | 164° |
| 2026-04-29 22:33 | 48.99356 | 15.33888 | 39421 ft | 487 kts | 164° |
| 2026-04-29 22:34 | 48.92936 | 15.36970 | 39415 ft | 487 kts | 164° |
| 2026-04-29 22:34 | 48.86394 | 15.39477 | 39396 ft | 484 kts | 174° |
| 2026-04-29 22:35 | 48.79729 | 15.41013 | 39389 ft | 484 kts | 173° |
| 2026-04-29 22:35 | 48.73059 | 15.42593 | 39390 ft | 485 kts | 173° |
| 2026-04-29 22:36 | 48.66389 | 15.44182 | 39405 ft | 486 kts | 174° |
| 2026-04-29 22:36 | 48.59708 | 15.45768 | 39412 ft | 486 kts | 174° |
| 2026-04-29 22:37 | 48.53062 | 15.47342 | 39426 ft | 486 kts | 174° |
| 2026-04-29 22:37 | 48.46380 | 15.48918 | 39440 ft | 485 kts | 174° |
| 2026-04-29 22:38 | 48.39706 | 15.50489 | 39415 ft | 486 kts | 174° |
| 2026-04-29 22:38 | 48.33029 | 15.52055 | 39412 ft | 486 kts | 175° |
| 2026-04-29 22:39 | 48.26348 | 15.53619 | 39422 ft | 486 kts | 175° |
| 2026-04-29 22:39 | 48.19650 | 15.55184 | 39424 ft | 486 kts | 175° |
| 2026-04-29 22:40 | 48.12997 | 15.56733 | 39410 ft | 487 kts | 175° |
| 2026-04-29 22:40 | 48.06293 | 15.58290 | 39414 ft | 488 kts | 175° |
| 2026-04-29 22:41 | 47.99576 | 15.59847 | 39400 ft | 488 kts | 175° |
| 2026-04-29 22:41 | 47.92852 | 15.61401 | 39408 ft | 489 kts | 175° |
| 2026-04-29 22:42 | 47.86126 | 15.62950 | 39407 ft | 489 kts | 175° |
| 2026-04-29 22:42 | 47.79411 | 15.64495 | 39410 ft | 488 kts | 175° |
| 2026-04-29 22:43 | 47.72735 | 15.66026 | 39407 ft | 488 kts | 175° |
| 2026-04-29 22:43 | 47.66028 | 15.67560 | 39409 ft | 487 kts | 176° |
| 2026-04-29 22:44 | 47.59326 | 15.69088 | 39397 ft | 486 kts | 176° |
| 2026-04-29 22:44 | 47.52652 | 15.70607 | 39400 ft | 485 kts | 176° |
| 2026-04-29 22:45 | 47.45972 | 15.72123 | 39381 ft | 484 kts | 176° |
| 2026-04-29 22:45 | 47.39367 | 15.73617 | 39370 ft | 483 kts | 176° |
| 2026-04-29 22:46 | 47.32724 | 15.75115 | 39358 ft | 482 kts | 176° |
| 2026-04-29 22:46 | 47.26088 | 15.76611 | 39342 ft | 482 kts | 176° |
| 2026-04-29 22:47 | 47.19464 | 15.78097 | 39332 ft | 481 kts | 176° |
| 2026-04-29 22:47 | 47.12835 | 15.79582 | 39324 ft | 481 kts | 176° |
| 2026-04-29 22:48 | 47.06243 | 15.81054 | 39323 ft | 482 kts | 176° |
| 2026-04-29 22:48 | 46.99606 | 15.82533 | 39320 ft | 482 kts | 176° |
| 2026-04-29 22:49 | 46.92964 | 15.84008 | 39319 ft | 483 kts | 176° |
| 2026-04-29 22:49 | 46.86314 | 15.85482 | 39328 ft | 483 kts | 176° |
| 2026-04-29 22:50 | 46.79654 | 15.86955 | 39323 ft | 484 kts | 176° |
| 2026-04-29 22:50 | 46.72997 | 15.88428 | 39333 ft | 484 kts | 176° |
| 2026-04-29 22:51 | 46.66353 | 15.89891 | 39340 ft | 483 kts | 176° |
| 2026-04-29 22:51 | 46.56436 | 15.92067 | 39352 ft | 482 kts | 176° |
| 2026-04-29 22:52 | 46.49809 | 15.93516 | 39354 ft | 481 kts | 176° |
| 2026-04-29 22:52 | 46.43196 | 15.94960 | 39341 ft | 480 kts | 176° |
| 2026-04-29 22:53 | 46.36592 | 15.96399 | 39334 ft | 479 kts | 176° |
| 2026-04-29 22:53 | 46.29986 | 15.97516 | 39322 ft | 474 kts | 184° |
| 2026-04-29 22:54 | 46.23481 | 15.97206 | 39319 ft | 470 kts | 188° |
| 2026-04-29 22:54 | 46.16940 | 15.96790 | 39305 ft | 470 kts | 188° |
| 2026-04-29 22:55 | 46.10398 | 15.96403 | 39301 ft | 471 kts | 188° |
| 2026-04-29 22:55 | 46.03845 | 15.96020 | 39304 ft | 471 kts | 188° |
| 2026-04-29 22:56 | 45.97321 | 15.95638 | 39307 ft | 471 kts | 188° |
| 2026-04-29 22:56 | 45.90765 | 15.95255 | 39316 ft | 471 kts | 188° |
| 2026-04-29 22:57 | 45.84203 | 15.94872 | 39318 ft | 471 kts | 188° |
| 2026-04-29 22:57 | 45.77644 | 15.94491 | 39324 ft | 471 kts | 188° |
| 2026-04-29 22:58 | 45.71082 | 15.94110 | 39323 ft | 471 kts | 188° |
| 2026-04-29 22:58 | 45.64578 | 15.93734 | 39318 ft | 471 kts | 188° |
| 2026-04-29 22:59 | 45.58033 | 15.93356 | 39315 ft | 470 kts | 188° |
| 2026-04-29 22:59 | 45.51499 | 15.92981 | 39310 ft | 470 kts | 188° |
| 2026-04-29 23:00 | 45.44962 | 15.92605 | 39314 ft | 470 kts | 188° |
| 2026-04-29 23:00 | 45.38433 | 15.92229 | 39293 ft | 469 kts | 188° |
| 2026-04-29 23:01 | 45.31944 | 15.91860 | 38863 ft | 465 kts | 188° |
| 2026-04-29 23:01 | 45.28710 | 15.91675 | 38258 ft | 465 kts | 188° |
| 2026-04-29 23:01 | 45.25466 | 15.91489 | 37611 ft | 466 kts | 188° |
| 2026-04-29 23:02 | 45.22224 | 15.91303 | 36902 ft | 468 kts | 188° |
| 2026-04-29 23:02 | 45.18962 | 15.91116 | 36234 ft | 469 kts | 188° |
| 2026-04-29 23:02 | 45.15692 | 15.90930 | 35556 ft | 470 kts | 188° |
| 2026-04-29 23:02 | 45.12453 | 15.90745 | 34897 ft | 472 kts | 188° |
| 2026-04-29 23:03 | 45.09182 | 15.90561 | 34555 ft | 465 kts | 188° |
| 2026-04-29 23:03 | 45.05984 | 15.90389 | 34433 ft | 453 kts | 188° |
| 2026-04-29 23:03 | 45.02871 | 15.90221 | 34278 ft | 442 kts | 188° |
| 2026-04-29 23:03 | 44.99817 | 15.90048 | 33847 ft | 437 kts | 188° |
| 2026-04-29 23:04 | 44.96792 | 15.89873 | 33384 ft | 434 kts | 188° |
| 2026-04-29 23:04 | 44.93780 | 15.89698 | 32919 ft | 430 kts | 188° |
| 2026-04-29 23:04 | 44.90800 | 15.89528 | 32497 ft | 427 kts | 188° |
| 2026-04-29 23:04 | 44.87881 | 15.89362 | 32060 ft | 423 kts | 188° |
| 2026-04-29 23:05 | 44.84950 | 15.89196 | 31635 ft | 420 kts | 188° |
| 2026-04-29 23:05 | 44.82037 | 15.89032 | 31207 ft | 417 kts | 188° |
| 2026-04-29 23:05 | 44.79147 | 15.88869 | 30765 ft | 413 kts | 188° |
| 2026-04-29 23:05 | 44.76282 | 15.88708 | 30315 ft | 410 kts | 188° |
| 2026-04-29 23:06 | 44.73435 | 15.88548 | 29803 ft | 407 kts | 188° |
| 2026-04-29 23:06 | 44.70621 | 15.88390 | 29325 ft | 403 kts | 188° |
| 2026-04-29 23:06 | 44.67817 | 15.88234 | 28813 ft | 400 kts | 188° |
| 2026-04-29 23:06 | 44.65050 | 15.88080 | 28304 ft | 396 kts | 188° |
| 2026-04-29 23:07 | 44.62300 | 15.87925 | 27811 ft | 393 kts | 188° |
| 2026-04-29 23:07 | 44.59579 | 15.87771 | 27319 ft | 390 kts | 187° |
| 2026-04-29 23:07 | 44.56910 | 15.87625 | 26847 ft | 387 kts | 187° |
| 2026-04-29 23:07 | 44.54233 | 15.87477 | 26348 ft | 384 kts | 187° |
| 2026-04-29 23:08 | 44.51573 | 15.87329 | 25851 ft | 381 kts | 187° |
| 2026-04-29 23:08 | 44.48928 | 15.87182 | 25385 ft | 378 kts | 187° |
| 2026-04-29 23:08 | 44.46310 | 15.87034 | 24921 ft | 375 kts | 187° |
| 2026-04-29 23:08 | 44.43709 | 15.86890 | 24463 ft | 372 kts | 187° |
| 2026-04-29 23:09 | 44.41129 | 15.86747 | 23988 ft | 370 kts | 187° |
| 2026-04-29 23:09 | 44.38569 | 15.86604 | 23471 ft | 367 kts | 187° |
| 2026-04-29 23:09 | 44.36024 | 15.86464 | 22930 ft | 363 kts | 187° |
| 2026-04-29 23:09 | 44.33505 | 15.86324 | 22387 ft | 361 kts | 187° |
| 2026-04-29 23:10 | 44.31038 | 15.86187 | 21867 ft | 358 kts | 187° |
| 2026-04-29 23:10 | 44.28557 | 15.86049 | 21367 ft | 355 kts | 187° |
| 2026-04-29 23:10 | 44.26098 | 15.85914 | 20857 ft | 352 kts | 187° |
| 2026-04-29 23:10 | 44.23657 | 15.85780 | 20328 ft | 350 kts | 187° |
| 2026-04-29 23:11 | 44.21239 | 15.85645 | 19840 ft | 347 kts | 187° |
| 2026-04-29 23:11 | 44.18833 | 15.85512 | 19352 ft | 345 kts | 187° |
| 2026-04-29 23:11 | 44.16446 | 15.85383 | 18868 ft | 342 kts | 187° |
| 2026-04-29 23:11 | 44.14061 | 15.85483 | 18358 ft | 345 kts | 176° |
| 2026-04-29 23:12 | 44.11745 | 15.86365 | 17846 ft | 347 kts | 161° |
| 2026-04-29 23:12 | 44.09596 | 15.87882 | 17337 ft | 345 kts | 155° |
| 2026-04-29 23:12 | 44.07491 | 15.89444 | 16852 ft | 340 kts | 155° |
| 2026-04-29 23:12 | 44.05404 | 15.90966 | 16337 ft | 337 kts | 155° |
| 2026-04-29 23:13 | 44.03333 | 15.92457 | 15853 ft | 333 kts | 155° |
| 2026-04-29 23:13 | 44.01280 | 15.93927 | 15356 ft | 330 kts | 155° |
| 2026-04-29 23:13 | 43.99251 | 15.95375 | 14875 ft | 327 kts | 155° |
| 2026-04-29 23:13 | 43.97238 | 15.96809 | 14399 ft | 323 kts | 155° |
| 2026-04-29 23:14 | 43.95250 | 15.98226 | 13920 ft | 319 kts | 155° |
| 2026-04-29 23:14 | 43.93281 | 15.99627 | 13366 ft | 316 kts | 155° |
| 2026-04-29 23:14 | 43.91354 | 16.00998 | 12805 ft | 314 kts | 155° |
| 2026-04-29 23:14 | 43.89394 | 16.02392 | 12249 ft | 311 kts | 155° |
| 2026-04-29 23:15 | 43.87492 | 16.03700 | 11840 ft | 303 kts | 159° |
| 2026-04-29 23:15 | 43.85552 | 16.04598 | 11591 ft | 287 kts | 169° |
| 2026-04-29 23:15 | 43.83601 | 16.05080 | 11115 ft | 282 kts | 173° |
| 2026-04-29 23:15 | 43.81748 | 16.05490 | 10610 ft | 281 kts | 173° |
| 2026-04-29 23:16 | 43.79829 | 16.05932 | 10117 ft | 278 kts | 173° |
| 2026-04-29 23:16 | 43.77923 | 16.06381 | 9577 ft | 276 kts | 173° |
| 2026-04-29 23:16 | 43.76026 | 16.06563 | 9007 ft | 272 kts | 184° |
| 2026-04-29 23:16 | 43.74145 | 16.06415 | 8462 ft | 269 kts | 185° |
| 2026-04-29 23:17 | 43.72285 | 16.06267 | 7933 ft | 267 kts | 185° |
| 2026-04-29 23:17 | 43.70441 | 16.06134 | 7409 ft | 264 kts | 184° |
| 2026-04-29 23:17 | 43.68619 | 16.06013 | 6955 ft | 260 kts | 184° |
| 2026-04-29 23:17 | 43.66804 | 16.05896 | 6718 ft | 263 kts | 184° |
| 2026-04-29 23:18 | 43.65002 | 16.05782 | 6501 ft | 261 kts | 184° |
| 2026-04-29 23:18 | 43.63190 | 16.05669 | 6281 ft | 260 kts | 184° |
| 2026-04-29 23:18 | 43.61382 | 16.05556 | 6050 ft | 260 kts | 184° |
| 2026-04-29 23:18 | 43.59612 | 16.05443 | 5781 ft | 260 kts | 184° |
| 2026-04-29 23:19 | 43.58491 | 16.05372 | 5592 ft | 258 kts | 184° |
| 2026-04-29 23:19 | 43.56702 | 16.05257 | 5297 ft | 257 kts | 184° |
| 2026-04-29 23:19 | 43.54917 | 16.05144 | 4996 ft | 256 kts | 184° |
| 2026-04-29 23:19 | 43.53141 | 16.05030 | 4692 ft | 255 kts | 183° |
| 2026-04-29 23:20 | 43.51370 | 16.04917 | 4343 ft | 255 kts | 183° |
| 2026-04-29 23:20 | 43.49617 | 16.04804 | 3852 ft | 249 kts | 183° |
| 2026-04-29 23:20 | 43.47924 | 16.04694 | 3551 ft | 237 kts | 182° |
| 2026-04-29 23:20 | 43.46327 | 16.04593 | 3348 ft | 224 kts | 182° |
| 2026-04-29 23:21 | 43.44813 | 16.04498 | 3201 ft | 212 kts | 182° |
| 2026-04-29 23:21 | 43.43366 | 16.04480 | 3065 ft | 209 kts | 171° |
| 2026-04-29 23:21 | 43.42055 | 16.05280 | 3006 ft | 208 kts | 139° |
| 2026-04-29 23:21 | 43.41265 | 16.06896 | 2930 ft | 206 kts | 106° |
| 2026-04-29 23:22 | 43.41267 | 16.08810 | 2859 ft | 205 kts | 69° |
| 2026-04-29 23:22 | 43.42120 | 16.10268 | 2807 ft | 193 kts | 37° |
| 2026-04-29 23:22 | 43.43217 | 16.11342 | 2794 ft | 196 kts | 36° |
| 2026-04-29 23:22 | 43.44240 | 16.12552 | 2795 ft | 193 kts | 46° |
| 2026-04-29 23:23 | 43.45088 | 16.13908 | 2749 ft | 182 kts | 52° |
| 2026-04-29 23:23 | 43.45823 | 16.15310 | 2482 ft | 179 kts | 53° |
| 2026-04-29 23:23 | 43.46583 | 16.16647 | 2229 ft | 176 kts | 52° |
| 2026-04-29 23:23 | 43.47069 | 16.17533 | 2081 ft | 171 kts | 53° |
| 2026-04-29 23:24 | 43.47759 | 16.18772 | 1859 ft | 155 kts | 52° |
| 2026-04-29 23:24 | 43.48391 | 16.19910 | 1656 ft | 148 kts | 53° |
| 2026-04-29 23:24 | 43.49031 | 16.21059 | 1455 ft | 149 kts | 53° |
| 2026-04-29 23:24 | 43.49650 | 16.22178 | 1226 ft | 148 kts | 52° |
| 2026-04-29 23:25 | 43.50278 | 16.23318 | 1001 ft | 148 kts | 51° |
| 2026-04-29 23:25 | 43.50904 | 16.24423 | 803 ft | 147 kts | 50° |
| 2026-04-29 23:25 | 43.51528 | 16.25553 | 661 ft | 148 kts | 51° |
| 2026-04-29 23:25 | 43.52154 | 16.26664 | 425 ft | 145 kts | 50° |
| 2026-04-29 23:26 | 43.52771 | 16.27767 | 259 ft | 147 kts | 52° |
| 2026-04-29 23:26 | 43.53382 | 16.28878 | 96 ft | 141 kts | 50° |
| 2026-04-29 23:26 | 43.53891 | 16.29787 | 86 ft | 82 kts | 53° |
| 2026-04-29 23:26 | 43.54022 | 16.30032 | 62 ft | 0 kts | 53° |
| 2026-04-29 23:27 | 43.49965 | 16.22751 | 1114 ft | 150 kts | 52° |
| 2026-04-29 23:27 | 43.50594 | 16.23878 | 881 ft | 146 kts | 51° |
| 2026-04-29 23:27 | 43.51220 | 16.24992 | 728 ft | 148 kts | 51° |
| 2026-04-29 23:27 | 43.51842 | 16.26117 | 567 ft | 147 kts | 50° |
| 2026-04-29 23:28 | 43.52465 | 16.27212 | 334 ft | 145 kts | 50° |
| 2026-04-29 23:28 | 43.53077 | 16.28337 | 165 ft | 145 kts | 51° |
| 2026-04-29 23:28 | 43.53666 | 16.29384 | 87 ft | 126 kts | 51° |
| 2026-04-29 23:28 | 43.53997 | 16.29985 | 74 ft | 26 kts | 53° |
| 2026-04-29 23:29 | 43.54025 | 16.30037 | 72 ft | 2 kts | 53° |
| 2026-04-29 23:29 | 43.54041 | 16.30069 | 67 ft | 6 kts | 54° |
| 2026-04-29 23:29 | 43.54045 | 16.30098 | 65 ft | 1 kts | 96° |
| 2026-04-29 23:29 | 43.54018 | 16.30104 | 66 ft | 5 kts | 181° |
| 2026-04-29 23:30 | 43.53982 | 16.30090 | 66 ft | 5 kts | 197° |
| 2026-04-29 23:30 | 43.53951 | 16.30077 | 69 ft | 4 kts | 197° |
| 2026-04-29 23:30 | 43.53923 | 16.30065 | 71 ft | 4 kts | 199° |
| 2026-04-29 23:30 | 43.53875 | 16.30007 | 71 ft | 14 kts | 232° |
| 2026-04-29 23:31 | 43.53816 | 16.29899 | 66 ft | 12 kts | 233° |
| 2026-04-29 23:31 | 43.53766 | 16.29806 | 63 ft | 12 kts | 233° |
| 2026-04-29 23:31 | 43.53723 | 16.29722 | 73 ft | 9 kts | 240° |
| 2026-04-29 23:31 | 43.53692 | 16.29670 | 65 ft | 6 kts | 217° |
| 2026-04-29 23:32 | 43.53670 | 16.29680 | 66 ft | 2 kts | 140° |
| 2026-04-29 23:32 | 43.53666 | 16.29698 | 66 ft | 2 kts | 112° |
| 2026-04-29 23:32 | 43.53664 | 16.29709 | 69 ft | 1 kts | 108° |
| 2026-04-29 23:32 | 43.53662 | 16.29726 | 64 ft | 2 kts | 99° |
| 2026-04-29 23:33 | 43.53662 | 16.29734 | 65 ft | 0 kts | 99° |